sensor_id;sensor_type;location;lat;lon;timestamp;P1;durP1;ratioP1;P2;durP2;ratioP2
65289;SDS011;51893;59.754;10.110;2023-07-20T00:00:03;0.50;;;0.30;;
65289;SDS011;51893;59.754;10.110;2023-07-20T00:03:09;2.20;;;0.40;;
65289;SDS011;51893;59.754;10.110;2023-07-20T00:05:40;0.30;;;0.30;;
65289;SDS011;51893;59.754;10.110;2023-07-20T00:08:08;0.20;;;0.20;;
65289;SDS011;51893;59.754;10.110;2023-07-20T00:10:36;0.30;;;0.30;;
65289;SDS011;51893;59.754;10.110;2023-07-20T00:13:04;0.50;;;0.50;;
65289;SDS011;51893;59.754;10.110;2023-07-20T00:15:33;1.80;;;0.40;;
65289;SDS011;51893;59.754;10.110;2023-07-20T00:18:01;1.70;;;0.40;;
65289;SDS011;51893;59.754;10.110;2023-07-20T00:20:30;1.20;;;0.40;;
65289;SDS011;51893;59.754;10.110;2023-07-20T00:22:58;0.30;;;0.30;;
65289;SDS011;51893;59.754;10.110;2023-07-20T00:25:26;0.30;;;0.30;;
65289;SDS011;51893;59.754;10.110;2023-07-20T00:27:54;1.20;;;0.60;;
65289;SDS011;51893;59.754;10.110;2023-07-20T00:30:23;0.30;;;0.30;;
65289;SDS011;51893;59.754;10.110;2023-07-20T00:32:51;1.80;;;0.40;;
65289;SDS011;51893;59.754;10.110;2023-07-20T00:35:21;1.00;;;0.40;;
65289;SDS011;51893;59.754;10.110;2023-07-20T00:37:50;0.30;;;0.30;;
65289;SDS011;51893;59.754;10.110;2023-07-20T00:40:18;0.40;;;0.40;;
65289;SDS011;51893;59.754;10.110;2023-07-20T00:42:46;0.30;;;0.30;;
65289;SDS011;51893;59.754;10.110;2023-07-20T00:45:15;0.50;;;0.50;;
65289;SDS011;51893;59.754;10.110;2023-07-20T00:47:43;0.50;;;0.50;;
65289;SDS011;51893;59.754;10.110;2023-07-20T00:50:12;0.40;;;0.40;;
65289;SDS011;51893;59.754;10.110;2023-07-20T00:52:41;0.30;;;0.30;;
65289;SDS011;51893;59.754;10.110;2023-07-20T00:55:10;0.30;;;0.30;;
65289;SDS011;51893;59.754;10.110;2023-07-20T00:57:39;0.40;;;0.40;;
65289;SDS011;51893;59.754;10.110;2023-07-20T01:00:07;0.30;;;0.30;;
65289;SDS011;51893;59.754;10.110;2023-07-20T01:02:37;0.40;;;0.40;;
65289;SDS011;51893;59.754;10.110;2023-07-20T01:05:06;0.40;;;0.40;;
65289;SDS011;51893;59.754;10.110;2023-07-20T01:07:39;0.30;;;0.30;;
65289;SDS011;51893;59.754;10.110;2023-07-20T01:13:06;3.80;;;0.60;;
65289;SDS011;51893;59.754;10.110;2023-07-20T01:15:35;2.60;;;0.80;;
65289;SDS011;51893;59.754;10.110;2023-07-20T01:18:04;1.40;;;1.00;;
65289;SDS011;51893;59.754;10.110;2023-07-20T01:20:33;3.40;;;1.30;;
65289;SDS011;51893;59.754;10.110;2023-07-20T01:29:25;1.80;;;1.60;;
65289;SDS011;51893;59.754;10.110;2023-07-20T01:32:23;2.90;;;2.00;;
65289;SDS011;51893;59.754;10.110;2023-07-20T01:34:54;3.30;;;1.70;;
65289;SDS011;51893;59.754;10.110;2023-07-20T01:37:27;5.60;;;2.50;;
65289;SDS011;51893;59.754;10.110;2023-07-20T01:39:58;3.70;;;2.20;;
65289;SDS011;51893;59.754;10.110;2023-07-20T01:42:28;4.20;;;2.30;;
65289;SDS011;51893;59.754;10.110;2023-07-20T01:44:57;4.90;;;2.60;;
65289;SDS011;51893;59.754;10.110;2023-07-20T01:47:25;6.00;;;2.80;;
65289;SDS011;51893;59.754;10.110;2023-07-20T01:49:53;6.90;;;2.70;;
65289;SDS011;51893;59.754;10.110;2023-07-20T01:52:21;7.00;;;3.20;;
65289;SDS011;51893;59.754;10.110;2023-07-20T01:54:48;4.50;;;2.90;;
65289;SDS011;51893;59.754;10.110;2023-07-20T01:57:17;6.40;;;3.30;;
65289;SDS011;51893;59.754;10.110;2023-07-20T01:59:45;6.10;;;3.20;;
65289;SDS011;51893;59.754;10.110;2023-07-20T02:02:14;9.60;;;3.20;;
65289;SDS011;51893;59.754;10.110;2023-07-20T02:04:43;7.50;;;3.30;;
65289;SDS011;51893;59.754;10.110;2023-07-20T02:07:12;7.00;;;3.40;;
65289;SDS011;51893;59.754;10.110;2023-07-20T02:09:40;3.20;;;1.70;;
65289;SDS011;51893;59.754;10.110;2023-07-20T02:12:08;7.40;;;3.00;;
65289;SDS011;51893;59.754;10.110;2023-07-20T02:14:36;5.30;;;2.40;;
65289;SDS011;51893;59.754;10.110;2023-07-20T02:17:04;5.30;;;2.40;;
65289;SDS011;51893;59.754;10.110;2023-07-20T02:19:33;3.30;;;2.10;;
65289;SDS011;51893;59.754;10.110;2023-07-20T02:22:02;4.30;;;1.90;;
65289;SDS011;51893;59.754;10.110;2023-07-20T02:24:30;4.00;;;1.50;;
65289;SDS011;51893;59.754;10.110;2023-07-20T02:26:58;2.90;;;1.40;;
65289;SDS011;51893;59.754;10.110;2023-07-20T02:29:26;3.90;;;1.10;;
65289;SDS011;51893;59.754;10.110;2023-07-20T02:31:54;3.20;;;1.10;;
65289;SDS011;51893;59.754;10.110;2023-07-20T02:34:23;1.90;;;0.80;;
65289;SDS011;51893;59.754;10.110;2023-07-20T02:36:51;1.30;;;1.20;;
65289;SDS011;51893;59.754;10.110;2023-07-20T02:39:19;1.70;;;1.20;;
65289;SDS011;51893;59.754;10.110;2023-07-20T02:41:47;2.60;;;1.10;;
65289;SDS011;51893;59.754;10.110;2023-07-20T02:44:15;2.80;;;1.10;;
65289;SDS011;51893;59.754;10.110;2023-07-20T02:46:44;1.20;;;1.00;;
65289;SDS011;51893;59.754;10.110;2023-07-20T02:49:12;2.50;;;1.00;;
65289;SDS011;51893;59.754;10.110;2023-07-20T02:51:41;2.90;;;1.00;;
65289;SDS011;51893;59.754;10.110;2023-07-20T02:54:09;1.30;;;0.90;;
65289;SDS011;51893;59.754;10.110;2023-07-20T02:56:37;1.70;;;1.20;;
65289;SDS011;51893;59.754;10.110;2023-07-20T02:59:05;1.10;;;0.90;;
65289;SDS011;51893;59.754;10.110;2023-07-20T03:01:33;0.80;;;0.70;;
65289;SDS011;51893;59.754;10.110;2023-07-20T03:04:02;2.60;;;0.90;;
65289;SDS011;51893;59.754;10.110;2023-07-20T03:06:34;2.80;;;0.70;;
65289;SDS011;51893;59.754;10.110;2023-07-20T03:09:04;0.50;;;0.50;;
65289;SDS011;51893;59.754;10.110;2023-07-20T03:11:34;1.30;;;0.60;;
65289;SDS011;51893;59.754;10.110;2023-07-20T03:14:02;0.70;;;0.70;;
65289;SDS011;51893;59.754;10.110;2023-07-20T03:16:30;2.10;;;0.60;;
65289;SDS011;51893;59.754;10.110;2023-07-20T03:19:00;0.50;;;0.50;;
65289;SDS011;51893;59.754;10.110;2023-07-20T03:21:29;0.40;;;0.40;;
65289;SDS011;51893;59.754;10.110;2023-07-20T03:23:57;0.60;;;0.50;;
65289;SDS011;51893;59.754;10.110;2023-07-20T03:26:25;1.10;;;0.30;;
65289;SDS011;51893;59.754;10.110;2023-07-20T03:28:53;0.50;;;0.50;;
65289;SDS011;51893;59.754;10.110;2023-07-20T03:31:22;1.60;;;0.60;;
65289;SDS011;51893;59.754;10.110;2023-07-20T03:33:50;0.40;;;0.40;;
65289;SDS011;51893;59.754;10.110;2023-07-20T03:36:18;0.40;;;0.40;;
65289;SDS011;51893;59.754;10.110;2023-07-20T03:38:46;0.40;;;0.40;;
65289;SDS011;51893;59.754;10.110;2023-07-20T03:41:14;4.10;;;0.60;;
65289;SDS011;51893;59.754;10.110;2023-07-20T03:43:44;0.60;;;0.50;;
65289;SDS011;51893;59.754;10.110;2023-07-20T03:46:11;0.50;;;0.40;;
65289;SDS011;51893;59.754;10.110;2023-07-20T03:48:39;1.30;;;0.60;;
65289;SDS011;51893;59.754;10.110;2023-07-20T03:51:08;0.30;;;0.30;;
65289;SDS011;51893;59.754;10.110;2023-07-20T03:53:36;0.60;;;0.40;;
65289;SDS011;51893;59.754;10.110;2023-07-20T03:56:04;1.30;;;0.50;;
65289;SDS011;51893;59.754;10.110;2023-07-20T03:58:33;0.30;;;0.30;;
65289;SDS011;51893;59.754;10.110;2023-07-20T04:01:01;3.00;;;0.40;;
65289;SDS011;51893;59.754;10.110;2023-07-20T04:03:29;0.90;;;0.30;;
65289;SDS011;51893;59.754;10.110;2023-07-20T04:05:58;0.30;;;0.30;;
65289;SDS011;51893;59.754;10.110;2023-07-20T04:08:31;1.30;;;0.40;;
65289;SDS011;51893;59.754;10.110;2023-07-20T04:11:01;1.30;;;0.30;;
65289;SDS011;51893;59.754;10.110;2023-07-20T04:13:30;0.30;;;0.30;;
65289;SDS011;51893;59.754;10.110;2023-07-20T04:16:02;0.30;;;0.30;;
65289;SDS011;51893;59.754;10.110;2023-07-20T04:18:30;1.80;;;0.30;;
65289;SDS011;51893;59.754;10.110;2023-07-20T04:20:58;0.30;;;0.30;;
65289;SDS011;51893;59.754;10.110;2023-07-20T04:23:26;0.30;;;0.30;;
65289;SDS011;51893;59.754;10.110;2023-07-20T04:25:54;0.30;;;0.30;;
65289;SDS011;51893;59.754;10.110;2023-07-20T04:28:22;0.30;;;0.30;;
65289;SDS011;51893;59.754;10.110;2023-07-20T04:30:50;0.30;;;0.30;;
65289;SDS011;51893;59.754;10.110;2023-07-20T04:33:19;0.30;;;0.30;;
65289;SDS011;51893;59.754;10.110;2023-07-20T04:35:53;0.20;;;0.20;;
65289;SDS011;51893;59.754;10.110;2023-07-20T04:38:22;2.30;;;0.30;;
65289;SDS011;51893;59.754;10.110;2023-07-20T04:40:51;0.20;;;0.20;;
65289;SDS011;51893;59.754;10.110;2023-07-20T04:43:19;0.30;;;0.30;;
65289;SDS011;51893;59.754;10.110;2023-07-20T04:45:47;0.30;;;0.30;;
65289;SDS011;51893;59.754;10.110;2023-07-20T04:48:16;1.30;;;0.30;;
65289;SDS011;51893;59.754;10.110;2023-07-20T04:50:46;0.20;;;0.20;;
65289;SDS011;51893;59.754;10.110;2023-07-20T04:53:14;2.20;;;0.30;;
65289;SDS011;51893;59.754;10.110;2023-07-20T04:55:48;0.30;;;0.30;;
65289;SDS011;51893;59.754;10.110;2023-07-20T04:58:22;2.40;;;0.40;;
65289;SDS011;51893;59.754;10.110;2023-07-20T05:00:50;0.40;;;0.40;;
65289;SDS011;51893;59.754;10.110;2023-07-20T05:03:19;1.40;;;0.30;;
65289;SDS011;51893;59.754;10.110;2023-07-20T05:05:47;0.20;;;0.20;;
65289;SDS011;51893;59.754;10.110;2023-07-20T05:08:17;0.20;;;0.20;;
65289;SDS011;51893;59.754;10.110;2023-07-20T05:10:49;0.80;;;0.30;;
65289;SDS011;51893;59.754;10.110;2023-07-20T05:13:18;1.80;;;0.30;;
65289;SDS011;51893;59.754;10.110;2023-07-20T05:15:46;0.30;;;0.30;;
65289;SDS011;51893;59.754;10.110;2023-07-20T05:18:16;0.30;;;0.30;;
65289;SDS011;51893;59.754;10.110;2023-07-20T05:20:48;2.30;;;0.30;;
65289;SDS011;51893;59.754;10.110;2023-07-20T05:23:19;0.30;;;0.30;;
65289;SDS011;51893;59.754;10.110;2023-07-20T05:25:57;0.20;;;0.20;;
65289;SDS011;51893;59.754;10.110;2023-07-20T05:28:27;0.20;;;0.20;;
65289;SDS011;51893;59.754;10.110;2023-07-20T05:30:55;0.30;;;0.30;;
65289;SDS011;51893;59.754;10.110;2023-07-20T05:33:25;0.20;;;0.20;;
65289;SDS011;51893;59.754;10.110;2023-07-20T05:35:53;0.80;;;0.40;;
65289;SDS011;51893;59.754;10.110;2023-07-20T05:38:20;1.70;;;0.30;;
65289;SDS011;51893;59.754;10.110;2023-07-20T05:40:49;0.40;;;0.40;;
65289;SDS011;51893;59.754;10.110;2023-07-20T05:43:17;1.30;;;0.40;;
65289;SDS011;51893;59.754;10.110;2023-07-20T05:45:45;1.30;;;0.30;;
65289;SDS011;51893;59.754;10.110;2023-07-20T05:48:16;0.80;;;0.40;;
65289;SDS011;51893;59.754;10.110;2023-07-20T05:50:44;1.10;;;0.30;;
65289;SDS011;51893;59.754;10.110;2023-07-20T05:53:12;0.70;;;0.30;;
65289;SDS011;51893;59.754;10.110;2023-07-20T05:55:40;1.70;;;0.30;;
65289;SDS011;51893;59.754;10.110;2023-07-20T05:58:08;0.10;;;0.10;;
65289;SDS011;51893;59.754;10.110;2023-07-20T06:00:36;0.20;;;0.20;;
65289;SDS011;51893;59.754;10.110;2023-07-20T06:03:04;0.50;;;0.20;;
65289;SDS011;51893;59.754;10.110;2023-07-20T06:05:32;0.20;;;0.20;;
65289;SDS011;51893;59.754;10.110;2023-07-20T06:08:00;0.50;;;0.30;;
65289;SDS011;51893;59.754;10.110;2023-07-20T06:10:28;0.30;;;0.30;;
65289;SDS011;51893;59.754;10.110;2023-07-20T06:12:57;0.20;;;0.20;;
65289;SDS011;51893;59.754;10.110;2023-07-20T06:15:27;0.30;;;0.20;;
65289;SDS011;51893;59.754;10.110;2023-07-20T06:17:57;0.20;;;0.20;;
65289;SDS011;51893;59.754;10.110;2023-07-20T06:20:26;0.30;;;0.30;;
65289;SDS011;51893;59.754;10.110;2023-07-20T06:22:54;0.20;;;0.20;;
65289;SDS011;51893;59.754;10.110;2023-07-20T06:25:26;2.10;;;0.30;;
65289;SDS011;51893;59.754;10.110;2023-07-20T06:27:55;0.70;;;0.30;;
65289;SDS011;51893;59.754;10.110;2023-07-20T06:30:24;0.50;;;0.10;;
65289;SDS011;51893;59.754;10.110;2023-07-20T06:32:58;0.90;;;0.30;;
65289;SDS011;51893;59.754;10.110;2023-07-20T06:35:26;0.10;;;0.10;;
65289;SDS011;51893;59.754;10.110;2023-07-20T06:37:54;0.20;;;0.20;;
65289;SDS011;51893;59.754;10.110;2023-07-20T06:40:23;0.20;;;0.20;;
65289;SDS011;51893;59.754;10.110;2023-07-20T06:42:54;0.20;;;0.20;;
65289;SDS011;51893;59.754;10.110;2023-07-20T06:45:24;0.60;;;0.20;;
65289;SDS011;51893;59.754;10.110;2023-07-20T06:47:54;0.20;;;0.20;;
65289;SDS011;51893;59.754;10.110;2023-07-20T06:50:22;0.20;;;0.20;;
65289;SDS011;51893;59.754;10.110;2023-07-20T06:52:54;0.20;;;0.20;;
65289;SDS011;51893;59.754;10.110;2023-07-20T06:55:26;0.30;;;0.30;;
65289;SDS011;51893;59.754;10.110;2023-07-20T06:57:59;0.10;;;0.10;;
65289;SDS011;51893;59.754;10.110;2023-07-20T07:00:27;0.10;;;0.10;;
65289;SDS011;51893;59.754;10.110;2023-07-20T07:02:55;0.20;;;0.20;;
65289;SDS011;51893;59.754;10.110;2023-07-20T07:05:25;0.20;;;0.20;;
65289;SDS011;51893;59.754;10.110;2023-07-20T07:08:07;0.10;;;0.10;;
65289;SDS011;51893;59.754;10.110;2023-07-20T07:10:36;0.60;;;0.20;;
65289;SDS011;51893;59.754;10.110;2023-07-20T07:13:04;0.10;;;0.10;;
65289;SDS011;51893;59.754;10.110;2023-07-20T07:15:33;0.80;;;0.20;;
65289;SDS011;51893;59.754;10.110;2023-07-20T07:18:02;0.10;;;0.10;;
65289;SDS011;51893;59.754;10.110;2023-07-20T07:20:31;0.20;;;0.20;;
65289;SDS011;51893;59.754;10.110;2023-07-20T07:23:00;0.20;;;0.20;;
65289;SDS011;51893;59.754;10.110;2023-07-20T07:25:28;1.50;;;0.20;;
65289;SDS011;51893;59.754;10.110;2023-07-20T07:27:58;0.10;;;0.10;;
65289;SDS011;51893;59.754;10.110;2023-07-20T07:30:25;0.20;;;0.10;;
65289;SDS011;51893;59.754;10.110;2023-07-20T07:32:54;0.60;;;0.20;;
65289;SDS011;51893;59.754;10.110;2023-07-20T07:35:22;0.20;;;0.20;;
65289;SDS011;51893;59.754;10.110;2023-07-20T07:37:50;0.20;;;0.20;;
65289;SDS011;51893;59.754;10.110;2023-07-20T07:40:38;0.60;;;0.20;;
65289;SDS011;51893;59.754;10.110;2023-07-20T07:43:06;0.20;;;0.20;;
65289;SDS011;51893;59.754;10.110;2023-07-20T07:45:36;2.30;;;0.20;;
65289;SDS011;51893;59.754;10.110;2023-07-20T07:48:07;0.20;;;0.20;;
65289;SDS011;51893;59.754;10.110;2023-07-20T07:50:36;0.10;;;0.10;;
65289;SDS011;51893;59.754;10.110;2023-07-20T07:53:05;0.10;;;0.10;;
65289;SDS011;51893;59.754;10.110;2023-07-20T07:55:33;0.20;;;0.20;;
65289;SDS011;51893;59.754;10.110;2023-07-20T07:58:01;0.10;;;0.10;;
65289;SDS011;51893;59.754;10.110;2023-07-20T08:00:29;1.00;;;0.20;;
65289;SDS011;51893;59.754;10.110;2023-07-20T08:02:58;0.10;;;0.10;;
65289;SDS011;51893;59.754;10.110;2023-07-20T08:05:26;0.10;;;0.10;;
65289;SDS011;51893;59.754;10.110;2023-07-20T08:07:54;3.00;;;0.20;;
65289;SDS011;51893;59.754;10.110;2023-07-20T08:10:22;0.10;;;0.10;;
65289;SDS011;51893;59.754;10.110;2023-07-20T08:12:50;0.20;;;0.20;;
65289;SDS011;51893;59.754;10.110;2023-07-20T08:15:21;0.20;;;0.20;;
65289;SDS011;51893;59.754;10.110;2023-07-20T08:17:49;0.10;;;0.10;;
65289;SDS011;51893;59.754;10.110;2023-07-20T08:20:19;0.10;;;0.10;;
65289;SDS011;51893;59.754;10.110;2023-07-20T08:22:55;0.10;;;0.10;;
65289;SDS011;51893;59.754;10.110;2023-07-20T08:25:23;0.10;;;0.10;;
65289;SDS011;51893;59.754;10.110;2023-07-20T08:27:52;0.10;;;0.10;;
65289;SDS011;51893;59.754;10.110;2023-07-20T08:30:21;0.10;;;0.10;;
65289;SDS011;51893;59.754;10.110;2023-07-20T08:32:51;0.50;;;0.20;;
65289;SDS011;51893;59.754;10.110;2023-07-20T08:35:19;0.10;;;0.10;;
65289;SDS011;51893;59.754;10.110;2023-07-20T08:37:49;0.10;;;0.10;;
65289;SDS011;51893;59.754;10.110;2023-07-20T08:40:18;0.20;;;0.20;;
65289;SDS011;51893;59.754;10.110;2023-07-20T08:42:46;0.10;;;0.10;;
65289;SDS011;51893;59.754;10.110;2023-07-20T08:45:16;0.90;;;0.20;;
65289;SDS011;51893;59.754;10.110;2023-07-20T08:47:47;0.20;;;0.20;;
65289;SDS011;51893;59.754;10.110;2023-07-20T08:50:17;0.10;;;0.10;;
65289;SDS011;51893;59.754;10.110;2023-07-20T08:52:48;0.10;;;0.10;;
65289;SDS011;51893;59.754;10.110;2023-07-20T08:55:20;0.20;;;0.20;;
65289;SDS011;51893;59.754;10.110;2023-07-20T08:57:55;0.10;;;0.10;;
65289;SDS011;51893;59.754;10.110;2023-07-20T09:00:26;0.30;;;0.10;;
65289;SDS011;51893;59.754;10.110;2023-07-20T09:02:57;0.20;;;0.10;;
65289;SDS011;51893;59.754;10.110;2023-07-20T09:05:30;0.10;;;0.10;;
65289;SDS011;51893;59.754;10.110;2023-07-20T09:08:01;0.20;;;0.20;;
65289;SDS011;51893;59.754;10.110;2023-07-20T09:10:32;0.10;;;0.10;;
65289;SDS011;51893;59.754;10.110;2023-07-20T09:13:00;0.10;;;0.10;;
65289;SDS011;51893;59.754;10.110;2023-07-20T09:15:30;0.10;;;0.10;;
65289;SDS011;51893;59.754;10.110;2023-07-20T09:18:01;0.20;;;0.20;;
65289;SDS011;51893;59.754;10.110;2023-07-20T09:20:36;3.40;;;0.30;;
65289;SDS011;51893;59.754;10.110;2023-07-20T09:23:04;0.20;;;0.20;;
65289;SDS011;51893;59.754;10.110;2023-07-20T09:25:36;0.10;;;0.10;;
65289;SDS011;51893;59.754;10.110;2023-07-20T09:28:04;1.70;;;0.20;;
65289;SDS011;51893;59.754;10.110;2023-07-20T09:30:33;0.10;;;0.10;;
65289;SDS011;51893;59.754;10.110;2023-07-20T09:33:02;0.20;;;0.20;;
65289;SDS011;51893;59.754;10.110;2023-07-20T09:35:30;0.10;;;0.10;;
65289;SDS011;51893;59.754;10.110;2023-07-20T09:38:10;0.10;;;0.10;;
65289;SDS011;51893;59.754;10.110;2023-07-20T09:40:41;0.10;;;0.10;;
65289;SDS011;51893;59.754;10.110;2023-07-20T09:43:15;0.10;;;0.10;;
65289;SDS011;51893;59.754;10.110;2023-07-20T09:48:18;0.00;;;0.00;;
65289;SDS011;51893;59.754;10.110;2023-07-20T09:50:56;0.10;;;0.10;;
65289;SDS011;51893;59.754;10.110;2023-07-20T09:53:25;0.10;;;0.10;;
65289;SDS011;51893;59.754;10.110;2023-07-20T09:55:54;0.20;;;0.20;;
65289;SDS011;51893;59.754;10.110;2023-07-20T09:58:26;0.20;;;0.10;;
65289;SDS011;51893;59.754;10.110;2023-07-20T10:00:56;0.10;;;0.10;;
65289;SDS011;51893;59.754;10.110;2023-07-20T10:03:29;1.90;;;0.20;;
65289;SDS011;51893;59.754;10.110;2023-07-20T10:06:06;0.10;;;0.10;;
65289;SDS011;51893;59.754;10.110;2023-07-20T10:08:41;0.10;;;0.10;;
65289;SDS011;51893;59.754;10.110;2023-07-20T10:11:15;0.10;;;0.10;;
65289;SDS011;51893;59.754;10.110;2023-07-20T10:13:46;0.10;;;0.10;;
65289;SDS011;51893;59.754;10.110;2023-07-20T10:16:28;0.00;;;0.00;;
65289;SDS011;51893;59.754;10.110;2023-07-20T10:19:07;1.20;;;0.10;;
65289;SDS011;51893;59.754;10.110;2023-07-20T10:21:53;0.10;;;0.10;;
65289;SDS011;51893;59.754;10.110;2023-07-20T10:24:31;0.10;;;0.10;;
65289;SDS011;51893;59.754;10.110;2023-07-20T10:27:01;0.60;;;0.10;;
65289;SDS011;51893;59.754;10.110;2023-07-20T10:29:29;0.10;;;0.10;;
65289;SDS011;51893;59.754;10.110;2023-07-20T10:31:59;0.60;;;0.20;;
65289;SDS011;51893;59.754;10.110;2023-07-20T10:34:36;0.10;;;0.10;;
65289;SDS011;51893;59.754;10.110;2023-07-20T10:37:04;0.10;;;0.10;;
65289;SDS011;51893;59.754;10.110;2023-07-20T10:39:33;0.20;;;0.10;;
65289;SDS011;51893;59.754;10.110;2023-07-20T10:42:05;0.10;;;0.10;;
65289;SDS011;51893;59.754;10.110;2023-07-20T10:44:39;0.10;;;0.10;;
65289;SDS011;51893;59.754;10.110;2023-07-20T10:47:12;0.10;;;0.10;;
65289;SDS011;51893;59.754;10.110;2023-07-20T10:49:58;0.00;;;0.00;;
65289;SDS011;51893;59.754;10.110;2023-07-20T10:56:11;0.10;;;0.10;;
65289;SDS011;51893;59.754;10.110;2023-07-20T10:58:42;0.10;;;0.10;;
65289;SDS011;51893;59.754;10.110;2023-07-20T11:01:14;0.50;;;0.20;;
65289;SDS011;51893;59.754;10.110;2023-07-20T11:03:49;0.20;;;0.20;;
65289;SDS011;51893;59.754;10.110;2023-07-20T11:09:09;0.10;;;0.10;;
65289;SDS011;51893;59.754;10.110;2023-07-20T11:11:40;0.10;;;0.10;;
65289;SDS011;51893;59.754;10.110;2023-07-20T11:14:20;0.70;;;0.10;;
65289;SDS011;51893;59.754;10.110;2023-07-20T11:16:53;0.10;;;0.10;;
65289;SDS011;51893;59.754;10.110;2023-07-20T11:19:26;0.10;;;0.10;;
65289;SDS011;51893;59.754;10.110;2023-07-20T11:21:58;0.30;;;0.20;;
65289;SDS011;51893;59.754;10.110;2023-07-20T11:27:00;0.10;;;0.10;;
65289;SDS011;51893;59.754;10.110;2023-07-20T11:29:29;0.00;;;0.00;;
65289;SDS011;51893;59.754;10.110;2023-07-20T11:32:02;0.20;;;0.20;;
65289;SDS011;51893;59.754;10.110;2023-07-20T11:34:34;1.10;;;0.20;;
65289;SDS011;51893;59.754;10.110;2023-07-20T11:37:03;0.10;;;0.10;;
65289;SDS011;51893;59.754;10.110;2023-07-20T11:39:38;0.10;;;0.10;;
65289;SDS011;51893;59.754;10.110;2023-07-20T11:42:08;0.10;;;0.10;;
65289;SDS011;51893;59.754;10.110;2023-07-20T11:44:36;0.20;;;0.20;;
65289;SDS011;51893;59.754;10.110;2023-07-20T11:47:08;0.10;;;0.10;;
65289;SDS011;51893;59.754;10.110;2023-07-20T11:49:42;0.10;;;0.10;;
65289;SDS011;51893;59.754;10.110;2023-07-20T11:52:14;0.10;;;0.10;;
65289;SDS011;51893;59.754;10.110;2023-07-20T11:54:45;0.10;;;0.10;;
65289;SDS011;51893;59.754;10.110;2023-07-20T11:57:20;0.10;;;0.10;;
65289;SDS011;51893;59.754;10.110;2023-07-20T12:00:00;0.40;;;0.10;;
65289;SDS011;51893;59.754;10.110;2023-07-20T12:02:32;0.10;;;0.10;;
65289;SDS011;51893;59.754;10.110;2023-07-20T12:05:02;1.60;;;0.20;;
65289;SDS011;51893;59.754;10.110;2023-07-20T12:07:35;1.70;;;0.20;;
65289;SDS011;51893;59.754;10.110;2023-07-20T12:10:10;0.20;;;0.20;;
65289;SDS011;51893;59.754;10.110;2023-07-20T12:12:41;1.30;;;0.30;;
65289;SDS011;51893;59.754;10.110;2023-07-20T12:15:20;0.30;;;0.20;;
65289;SDS011;51893;59.754;10.110;2023-07-20T12:17:59;1.50;;;0.20;;
65289;SDS011;51893;59.754;10.110;2023-07-20T12:23:10;0.20;;;0.20;;
65289;SDS011;51893;59.754;10.110;2023-07-20T12:25:44;0.70;;;0.20;;
65289;SDS011;51893;59.754;10.110;2023-07-20T12:28:19;2.60;;;0.30;;
65289;SDS011;51893;59.754;10.110;2023-07-20T12:30:47;0.20;;;0.20;;
65289;SDS011;51893;59.754;10.110;2023-07-20T12:33:23;2.10;;;0.20;;
65289;SDS011;51893;59.754;10.110;2023-07-20T12:35:52;0.70;;;0.40;;
65289;SDS011;51893;59.754;10.110;2023-07-20T12:38:26;7.00;;;0.50;;
65289;SDS011;51893;59.754;10.110;2023-07-20T12:40:56;0.70;;;0.10;;
65289;SDS011;51893;59.754;10.110;2023-07-20T12:43:25;1.80;;;0.50;;
65289;SDS011;51893;59.754;10.110;2023-07-20T12:45:53;0.80;;;0.30;;
65289;SDS011;51893;59.754;10.110;2023-07-20T12:48:22;0.70;;;0.40;;
65289;SDS011;51893;59.754;10.110;2023-07-20T12:50:51;0.60;;;0.30;;
65289;SDS011;51893;59.754;10.110;2023-07-20T12:53:20;1.10;;;0.40;;
65289;SDS011;51893;59.754;10.110;2023-07-20T12:55:49;2.00;;;0.50;;
65289;SDS011;51893;59.754;10.110;2023-07-20T12:58:17;1.00;;;0.20;;
65289;SDS011;51893;59.754;10.110;2023-07-20T13:00:45;0.90;;;0.40;;
65289;SDS011;51893;59.754;10.110;2023-07-20T13:03:13;3.50;;;0.30;;
65289;SDS011;51893;59.754;10.110;2023-07-20T13:05:57;0.20;;;0.20;;
65289;SDS011;51893;59.754;10.110;2023-07-20T13:08:28;0.80;;;0.30;;
65289;SDS011;51893;59.754;10.110;2023-07-20T13:10:59;0.30;;;0.20;;
65289;SDS011;51893;59.754;10.110;2023-07-20T13:13:28;1.30;;;0.30;;
65289;SDS011;51893;59.754;10.110;2023-07-20T13:15:56;1.80;;;0.20;;
65289;SDS011;51893;59.754;10.110;2023-07-20T13:18:24;0.20;;;0.20;;
65289;SDS011;51893;59.754;10.110;2023-07-20T13:20:52;0.20;;;0.20;;
65289;SDS011;51893;59.754;10.110;2023-07-20T13:23:20;0.90;;;0.30;;
65289;SDS011;51893;59.754;10.110;2023-07-20T13:25:49;1.20;;;0.20;;
65289;SDS011;51893;59.754;10.110;2023-07-20T13:28:17;0.20;;;0.20;;
65289;SDS011;51893;59.754;10.110;2023-07-20T13:30:46;0.70;;;0.30;;
65289;SDS011;51893;59.754;10.110;2023-07-20T13:33:14;1.40;;;0.20;;
65289;SDS011;51893;59.754;10.110;2023-07-20T13:35:45;0.20;;;0.20;;
65289;SDS011;51893;59.754;10.110;2023-07-20T13:38:16;1.90;;;0.20;;
65289;SDS011;51893;59.754;10.110;2023-07-20T13:40:45;0.20;;;0.20;;
65289;SDS011;51893;59.754;10.110;2023-07-20T13:43:15;0.80;;;0.30;;
65289;SDS011;51893;59.754;10.110;2023-07-20T13:45:43;0.20;;;0.20;;
65289;SDS011;51893;59.754;10.110;2023-07-20T13:48:11;0.30;;;0.30;;
65289;SDS011;51893;59.754;10.110;2023-07-20T13:50:44;0.20;;;0.20;;
65289;SDS011;51893;59.754;10.110;2023-07-20T13:53:25;4.10;;;0.30;;
65289;SDS011;51893;59.754;10.110;2023-07-20T13:55:58;1.40;;;0.20;;
65289;SDS011;51893;59.754;10.110;2023-07-20T13:58:29;1.20;;;0.40;;
65289;SDS011;51893;59.754;10.110;2023-07-20T14:00:58;1.40;;;0.20;;
65289;SDS011;51893;59.754;10.110;2023-07-20T14:03:27;0.30;;;0.30;;
65289;SDS011;51893;59.754;10.110;2023-07-20T14:05:55;0.70;;;0.40;;
65289;SDS011;51893;59.754;10.110;2023-07-20T14:08:28;0.20;;;0.20;;
65289;SDS011;51893;59.754;10.110;2023-07-20T14:10:58;0.40;;;0.40;;
65289;SDS011;51893;59.754;10.110;2023-07-20T14:13:28;0.40;;;0.40;;
65289;SDS011;51893;59.754;10.110;2023-07-20T14:16:13;0.30;;;0.30;;
65289;SDS011;51893;59.754;10.110;2023-07-20T14:18:43;0.60;;;0.30;;
65289;SDS011;51893;59.754;10.110;2023-07-20T14:21:17;0.30;;;0.30;;
65289;SDS011;51893;59.754;10.110;2023-07-20T14:23:49;0.30;;;0.20;;
65289;SDS011;51893;59.754;10.110;2023-07-20T14:26:21;2.30;;;0.30;;
65289;SDS011;51893;59.754;10.110;2023-07-20T14:28:50;0.20;;;0.20;;
65289;SDS011;51893;59.754;10.110;2023-07-20T14:31:18;1.60;;;0.30;;
65289;SDS011;51893;59.754;10.110;2023-07-20T14:33:48;0.30;;;0.30;;
65289;SDS011;51893;59.754;10.110;2023-07-20T14:36:20;0.20;;;0.20;;
65289;SDS011;51893;59.754;10.110;2023-07-20T14:38:49;0.20;;;0.20;;
65289;SDS011;51893;59.754;10.110;2023-07-20T14:41:17;0.30;;;0.30;;
65289;SDS011;51893;59.754;10.110;2023-07-20T14:43:45;0.80;;;0.20;;
65289;SDS011;51893;59.754;10.110;2023-07-20T14:46:13;0.20;;;0.20;;
65289;SDS011;51893;59.754;10.110;2023-07-20T14:48:41;0.10;;;0.10;;
65289;SDS011;51893;59.754;10.110;2023-07-20T14:51:10;1.40;;;0.20;;
65289;SDS011;51893;59.754;10.110;2023-07-20T14:53:38;0.20;;;0.20;;
65289;SDS011;51893;59.754;10.110;2023-07-20T14:56:06;0.10;;;0.10;;
65289;SDS011;51893;59.754;10.110;2023-07-20T14:58:35;0.20;;;0.20;;
65289;SDS011;51893;59.754;10.110;2023-07-20T15:01:05;0.70;;;0.20;;
65289;SDS011;51893;59.754;10.110;2023-07-20T15:03:33;0.20;;;0.20;;
65289;SDS011;51893;59.754;10.110;2023-07-20T15:06:01;0.10;;;0.10;;
65289;SDS011;51893;59.754;10.110;2023-07-20T15:08:30;0.20;;;0.20;;
65289;SDS011;51893;59.754;10.110;2023-07-20T15:10:59;0.30;;;0.30;;
65289;SDS011;51893;59.754;10.110;2023-07-20T15:13:27;1.40;;;0.10;;